sensor_id;sensor_type;location;lat;lon;timestamp;P1;durP1;ratioP1;P2;durP2;ratioP2
6109;SDS011;3085;49.444;11.054;2023-04-09T00:00:43;13.40;;;5.10;;
6109;SDS011;3085;49.444;11.054;2023-04-09T00:03:10;14.07;;;5.87;;
6109;SDS011;3085;49.444;11.054;2023-04-09T00:05:38;11.33;;;5.57;;
6109;SDS011;3085;49.444;11.054;2023-04-09T00:08:05;11.33;;;5.30;;
6109;SDS011;3085;49.444;11.054;2023-04-09T00:10:33;7.43;;;4.40;;
6109;SDS011;3085;49.444;11.054;2023-04-09T00:13:00;9.20;;;4.97;;
6109;SDS011;3085;49.444;11.054;2023-04-09T00:15:27;8.90;;;5.20;;
6109;SDS011;3085;49.444;11.054;2023-04-09T00:17:54;7.93;;;5.47;;
6109;SDS011;3085;49.444;11.054;2023-04-09T00:20:21;10.73;;;5.40;;
6109;SDS011;3085;49.444;11.054;2023-04-09T00:22:48;8.60;;;5.70;;
6109;SDS011;3085;49.444;11.054;2023-04-09T00:25:15;11.33;;;5.77;;
6109;SDS011;3085;49.444;11.054;2023-04-09T00:27:44;8.37;;;5.30;;
6109;SDS011;3085;49.444;11.054;2023-04-09T00:30:11;13.03;;;6.03;;
6109;SDS011;3085;49.444;11.054;2023-04-09T00:32:37;7.90;;;4.60;;
6109;SDS011;3085;49.444;11.054;2023-04-09T00:35:04;9.63;;;4.73;;
6109;SDS011;3085;49.444;11.054;2023-04-09T00:37:31;9.83;;;5.47;;
6109;SDS011;3085;49.444;11.054;2023-04-09T00:39:58;9.70;;;5.17;;
6109;SDS011;3085;49.444;11.054;2023-04-09T00:42:25;11.30;;;5.43;;
6109;SDS011;3085;49.444;11.054;2023-04-09T00:44:53;9.07;;;4.37;;
6109;SDS011;3085;49.444;11.054;2023-04-09T00:47:20;10.70;;;4.43;;
6109;SDS011;3085;49.444;11.054;2023-04-09T00:49:47;10.40;;;5.10;;
6109;SDS011;3085;49.444;11.054;2023-04-09T00:52:14;7.60;;;4.43;;
6109;SDS011;3085;49.444;11.054;2023-04-09T00:54:41;6.60;;;4.83;;
6109;SDS011;3085;49.444;11.054;2023-04-09T00:57:08;10.47;;;5.17;;
6109;SDS011;3085;49.444;11.054;2023-04-09T00:59:36;10.60;;;5.30;;
6109;SDS011;3085;49.444;11.054;2023-04-09T01:02:05;11.00;;;4.60;;
6109;SDS011;3085;49.444;11.054;2023-04-09T01:04:31;10.53;;;5.60;;
6109;SDS011;3085;49.444;11.054;2023-04-09T01:07:01;10.00;;;5.43;;
6109;SDS011;3085;49.444;11.054;2023-04-09T01:09:38;8.57;;;4.67;;
6109;SDS011;3085;49.444;11.054;2023-04-09T01:12:09;10.80;;;4.90;;
6109;SDS011;3085;49.444;11.054;2023-04-09T01:14:42;11.47;;;5.30;;
6109;SDS011;3085;49.444;11.054;2023-04-09T01:17:29;9.87;;;5.60;;
6109;SDS011;3085;49.444;11.054;2023-04-09T01:20:00;9.77;;;4.63;;
6109;SDS011;3085;49.444;11.054;2023-04-09T01:22:31;11.87;;;5.93;;
6109;SDS011;3085;49.444;11.054;2023-04-09T01:25:13;9.67;;;6.70;;
6109;SDS011;3085;49.444;11.054;2023-04-09T01:27:53;9.10;;;5.60;;
6109;SDS011;3085;49.444;11.054;2023-04-09T01:30:33;12.97;;;6.13;;
6109;SDS011;3085;49.444;11.054;2023-04-09T01:33:01;12.43;;;6.20;;
6109;SDS011;3085;49.444;11.054;2023-04-09T01:35:30;15.40;;;7.07;;
6109;SDS011;3085;49.444;11.054;2023-04-09T01:37:57;10.30;;;5.53;;
6109;SDS011;3085;49.444;11.054;2023-04-09T01:40:25;9.90;;;5.70;;
6109;SDS011;3085;49.444;11.054;2023-04-09T01:42:52;9.43;;;4.50;;
6109;SDS011;3085;49.444;11.054;2023-04-09T01:45:21;10.63;;;6.03;;
6109;SDS011;3085;49.444;11.054;2023-04-09T01:47:48;9.57;;;5.77;;
6109;SDS011;3085;49.444;11.054;2023-04-09T01:50:15;10.73;;;5.80;;
6109;SDS011;3085;49.444;11.054;2023-04-09T01:52:43;12.80;;;6.30;;
6109;SDS011;3085;49.444;11.054;2023-04-09T01:55:09;10.00;;;5.77;;
6109;SDS011;3085;49.444;11.054;2023-04-09T01:57:36;8.50;;;4.73;;
6109;SDS011;3085;49.444;11.054;2023-04-09T02:00:04;8.57;;;4.67;;
6109;SDS011;3085;49.444;11.054;2023-04-09T02:02:35;11.00;;;5.53;;
6109;SDS011;3085;49.444;11.054;2023-04-09T02:05:07;7.97;;;4.10;;
6109;SDS011;3085;49.444;11.054;2023-04-09T02:07:37;10.53;;;5.47;;
6109;SDS011;3085;49.444;11.054;2023-04-09T02:10:07;14.70;;;6.63;;
6109;SDS011;3085;49.444;11.054;2023-04-09T02:12:37;7.80;;;4.97;;
6109;SDS011;3085;49.444;11.054;2023-04-09T02:15:07;10.83;;;5.53;;
6109;SDS011;3085;49.444;11.054;2023-04-09T02:17:36;10.90;;;5.50;;
6109;SDS011;3085;49.444;11.054;2023-04-09T02:20:03;11.10;;;5.37;;
6109;SDS011;3085;49.444;11.054;2023-04-09T02:22:31;11.80;;;5.70;;
6109;SDS011;3085;49.444;11.054;2023-04-09T02:24:58;15.53;;;6.90;;
6109;SDS011;3085;49.444;11.054;2023-04-09T02:27:25;9.43;;;5.27;;
6109;SDS011;3085;49.444;11.054;2023-04-09T02:29:51;11.53;;;6.47;;
6109;SDS011;3085;49.444;11.054;2023-04-09T02:32:18;9.97;;;6.00;;
6109;SDS011;3085;49.444;11.054;2023-04-09T02:34:46;11.93;;;5.20;;
6109;SDS011;3085;49.444;11.054;2023-04-09T02:37:13;11.37;;;5.50;;
6109;SDS011;3085;49.444;11.054;2023-04-09T02:39:40;10.70;;;5.80;;
6109;SDS011;3085;49.444;11.054;2023-04-09T02:42:06;9.90;;;6.10;;
6109;SDS011;3085;49.444;11.054;2023-04-09T02:44:33;13.53;;;6.23;;
6109;SDS011;3085;49.444;11.054;2023-04-09T02:47:00;12.20;;;6.03;;
6109;SDS011;3085;49.444;11.054;2023-04-09T02:49:27;9.77;;;6.30;;
6109;SDS011;3085;49.444;11.054;2023-04-09T02:51:55;9.50;;;5.60;;
6109;SDS011;3085;49.444;11.054;2023-04-09T02:54:22;11.70;;;5.47;;
6109;SDS011;3085;49.444;11.054;2023-04-09T02:56:48;6.90;;;5.30;;
6109;SDS011;3085;49.444;11.054;2023-04-09T02:59:15;12.73;;;6.00;;
6109;SDS011;3085;49.444;11.054;2023-04-09T03:01:42;8.67;;;5.43;;
6109;SDS011;3085;49.444;11.054;2023-04-09T03:04:09;9.20;;;5.37;;
6109;SDS011;3085;49.444;11.054;2023-04-09T03:06:35;10.57;;;5.57;;
6109;SDS011;3085;49.444;11.054;2023-04-09T03:09:03;9.53;;;5.47;;
6109;SDS011;3085;49.444;11.054;2023-04-09T03:11:30;8.43;;;5.30;;
6109;SDS011;3085;49.444;11.054;2023-04-09T03:13:57;9.90;;;5.37;;
6109;SDS011;3085;49.444;11.054;2023-04-09T03:16:24;11.90;;;5.23;;
6109;SDS011;3085;49.444;11.054;2023-04-09T03:18:51;11.67;;;6.00;;
6109;SDS011;3085;49.444;11.054;2023-04-09T03:21:17;14.20;;;5.90;;
6109;SDS011;3085;49.444;11.054;2023-04-09T03:23:45;8.83;;;5.37;;
6109;SDS011;3085;49.444;11.054;2023-04-09T03:26:13;15.77;;;7.50;;
6109;SDS011;3085;49.444;11.054;2023-04-09T03:28:39;10.07;;;5.80;;
6109;SDS011;3085;49.444;11.054;2023-04-09T03:31:06;16.97;;;6.70;;
6109;SDS011;3085;49.444;11.054;2023-04-09T03:33:33;15.87;;;6.97;;
6109;SDS011;3085;49.444;11.054;2023-04-09T03:35:59;9.93;;;5.80;;
6109;SDS011;3085;49.444;11.054;2023-04-09T03:38:26;11.37;;;5.70;;
6109;SDS011;3085;49.444;11.054;2023-04-09T03:40:53;16.50;;;6.40;;
6109;SDS011;3085;49.444;11.054;2023-04-09T03:43:23;12.00;;;5.83;;
6109;SDS011;3085;49.444;11.054;2023-04-09T03:45:49;12.10;;;5.93;;
6109;SDS011;3085;49.444;11.054;2023-04-09T03:48:16;10.60;;;5.80;;
6109;SDS011;3085;49.444;11.054;2023-04-09T03:50:43;10.97;;;6.00;;
6109;SDS011;3085;49.444;11.054;2023-04-09T03:53:12;9.73;;;5.90;;
6109;SDS011;3085;49.444;11.054;2023-04-09T03:55:39;10.47;;;6.30;;
6109;SDS011;3085;49.444;11.054;2023-04-09T03:58:06;11.73;;;6.30;;
6109;SDS011;3085;49.444;11.054;2023-04-09T04:00:34;9.50;;;5.53;;
6109;SDS011;3085;49.444;11.054;2023-04-09T04:03:01;12.70;;;6.03;;
6109;SDS011;3085;49.444;11.054;2023-04-09T04:05:27;12.23;;;5.50;;
6109;SDS011;3085;49.444;11.054;2023-04-09T04:07:54;15.30;;;6.30;;
6109;SDS011;3085;49.444;11.054;2023-04-09T04:10:21;9.87;;;6.00;;
6109;SDS011;3085;49.444;11.054;2023-04-09T04:12:47;11.00;;;5.63;;
6109;SDS011;3085;49.444;11.054;2023-04-09T04:15:14;7.93;;;4.80;;
6109;SDS011;3085;49.444;11.054;2023-04-09T04:17:42;15.37;;;7.40;;
6109;SDS011;3085;49.444;11.054;2023-04-09T04:20:10;9.37;;;4.97;;
6109;SDS011;3085;49.444;11.054;2023-04-09T04:22:37;9.87;;;4.93;;
6109;SDS011;3085;49.444;11.054;2023-04-09T04:25:04;11.50;;;5.40;;
6109;SDS011;3085;49.444;11.054;2023-04-09T04:27:31;13.23;;;5.83;;
6109;SDS011;3085;49.444;11.054;2023-04-09T04:29:58;8.23;;;5.90;;
6109;SDS011;3085;49.444;11.054;2023-04-09T04:32:26;13.43;;;6.43;;
6109;SDS011;3085;49.444;11.054;2023-04-09T04:34:54;10.53;;;5.17;;
6109;SDS011;3085;49.444;11.054;2023-04-09T04:37:21;15.23;;;5.90;;
6109;SDS011;3085;49.444;11.054;2023-04-09T04:39:47;12.70;;;6.43;;
6109;SDS011;3085;49.444;11.054;2023-04-09T04:42:14;10.83;;;5.50;;
6109;SDS011;3085;49.444;11.054;2023-04-09T04:44:41;11.73;;;4.70;;
6109;SDS011;3085;49.444;11.054;2023-04-09T04:47:08;10.23;;;5.93;;
6109;SDS011;3085;49.444;11.054;2023-04-09T04:49:35;11.00;;;6.30;;
6109;SDS011;3085;49.444;11.054;2023-04-09T04:52:03;12.83;;;5.33;;
6109;SDS011;3085;49.444;11.054;2023-04-09T04:54:30;12.90;;;5.33;;
6109;SDS011;3085;49.444;11.054;2023-04-09T04:56:58;12.03;;;6.87;;
6109;SDS011;3085;49.444;11.054;2023-04-09T04:59:25;9.40;;;5.33;;
6109;SDS011;3085;49.444;11.054;2023-04-09T05:01:51;10.10;;;4.90;;
6109;SDS011;3085;49.444;11.054;2023-04-09T05:04:18;9.37;;;6.00;;
6109;SDS011;3085;49.444;11.054;2023-04-09T05:06:45;9.57;;;5.03;;
6109;SDS011;3085;49.444;11.054;2023-04-09T05:09:13;9.03;;;4.80;;
6109;SDS011;3085;49.444;11.054;2023-04-09T05:11:40;9.70;;;5.20;;
6109;SDS011;3085;49.444;11.054;2023-04-09T05:14:07;10.40;;;4.93;;
6109;SDS011;3085;49.444;11.054;2023-04-09T05:16:34;9.80;;;5.40;;
6109;SDS011;3085;49.444;11.054;2023-04-09T05:19:01;10.17;;;5.50;;
6109;SDS011;3085;49.444;11.054;2023-04-09T05:21:28;10.10;;;5.73;;
6109;SDS011;3085;49.444;11.054;2023-04-09T05:23:55;8.87;;;5.47;;
6109;SDS011;3085;49.444;11.054;2023-04-09T05:26:23;6.73;;;4.63;;
6109;SDS011;3085;49.444;11.054;2023-04-09T05:28:50;9.13;;;5.53;;
6109;SDS011;3085;49.444;11.054;2023-04-09T05:31:17;10.40;;;5.17;;
6109;SDS011;3085;49.444;11.054;2023-04-09T05:33:44;11.10;;;5.10;;
6109;SDS011;3085;49.444;11.054;2023-04-09T05:36:13;9.47;;;5.53;;
6109;SDS011;3085;49.444;11.054;2023-04-09T05:38:41;10.47;;;5.30;;
6109;SDS011;3085;49.444;11.054;2023-04-09T05:41:07;10.00;;;5.43;;
6109;SDS011;3085;49.444;11.054;2023-04-09T05:43:35;10.47;;;5.03;;
6109;SDS011;3085;49.444;11.054;2023-04-09T05:46:02;10.10;;;5.27;;
6109;SDS011;3085;49.444;11.054;2023-04-09T05:48:29;17.00;;;6.53;;
6109;SDS011;3085;49.444;11.054;2023-04-09T05:50:56;10.63;;;6.00;;
6109;SDS011;3085;49.444;11.054;2023-04-09T05:53:23;9.43;;;5.60;;
6109;SDS011;3085;49.444;11.054;2023-04-09T05:55:50;11.87;;;5.90;;
6109;SDS011;3085;49.444;11.054;2023-04-09T05:58:17;10.10;;;5.33;;
6109;SDS011;3085;49.444;11.054;2023-04-09T06:00:45;11.67;;;6.30;;
6109;SDS011;3085;49.444;11.054;2023-04-09T06:03:12;14.50;;;6.97;;
6109;SDS011;3085;49.444;11.054;2023-04-09T06:05:39;9.03;;;5.20;;
6109;SDS011;3085;49.444;11.054;2023-04-09T06:08:05;10.93;;;6.33;;
6109;SDS011;3085;49.444;11.054;2023-04-09T06:10:32;13.23;;;6.33;;
6109;SDS011;3085;49.444;11.054;2023-04-09T06:12:59;14.73;;;6.50;;
6109;SDS011;3085;49.444;11.054;2023-04-09T06:15:26;16.80;;;8.50;;
6109;SDS011;3085;49.444;11.054;2023-04-09T06:17:54;17.40;;;7.07;;
6109;SDS011;3085;49.444;11.054;2023-04-09T06:20:21;18.20;;;8.77;;
6109;SDS011;3085;49.444;11.054;2023-04-09T06:22:50;16.93;;;8.17;;
6109;SDS011;3085;49.444;11.054;2023-04-09T06:25:16;16.50;;;8.60;;
6109;SDS011;3085;49.444;11.054;2023-04-09T06:27:43;16.23;;;7.93;;
6109;SDS011;3085;49.444;11.054;2023-04-09T06:30:10;14.20;;;8.23;;
6109;SDS011;3085;49.444;11.054;2023-04-09T06:32:37;16.40;;;8.30;;
6109;SDS011;3085;49.444;11.054;2023-04-09T06:35:06;17.43;;;7.80;;
6109;SDS011;3085;49.444;11.054;2023-04-09T06:37:33;15.40;;;8.10;;
6109;SDS011;3085;49.444;11.054;2023-04-09T06:40:00;11.33;;;7.67;;
6109;SDS011;3085;49.444;11.054;2023-04-09T06:42:27;14.07;;;7.20;;
6109;SDS011;3085;49.444;11.054;2023-04-09T06:44:54;13.13;;;7.00;;
6109;SDS011;3085;49.444;11.054;2023-04-09T06:47:22;14.07;;;7.57;;
6109;SDS011;3085;49.444;11.054;2023-04-09T06:49:48;15.90;;;8.07;;
6109;SDS011;3085;49.444;11.054;2023-04-09T06:52:17;14.47;;;7.53;;
6109;SDS011;3085;49.444;11.054;2023-04-09T06:54:43;14.93;;;7.60;;
6109;SDS011;3085;49.444;11.054;2023-04-09T06:57:11;15.80;;;7.53;;
6109;SDS011;3085;49.444;11.054;2023-04-09T06:59:38;14.70;;;8.03;;
6109;SDS011;3085;49.444;11.054;2023-04-09T07:02:04;17.97;;;9.30;;
6109;SDS011;3085;49.444;11.054;2023-04-09T07:04:33;14.23;;;8.17;;
6109;SDS011;3085;49.444;11.054;2023-04-09T07:07:00;20.83;;;9.03;;
6109;SDS011;3085;49.444;11.054;2023-04-09T07:09:28;23.10;;;9.83;;
6109;SDS011;3085;49.444;11.054;2023-04-09T07:11:55;14.57;;;7.20;;
6109;SDS011;3085;49.444;11.054;2023-04-09T07:14:22;14.87;;;8.00;;
6109;SDS011;3085;49.444;11.054;2023-04-09T07:16:49;18.80;;;9.60;;
6109;SDS011;3085;49.444;11.054;2023-04-09T07:19:15;22.30;;;9.03;;
6109;SDS011;3085;49.444;11.054;2023-04-09T07:21:42;15.60;;;8.07;;
6109;SDS011;3085;49.444;11.054;2023-04-09T07:24:09;14.60;;;7.33;;
6109;SDS011;3085;49.444;11.054;2023-04-09T07:26:37;20.87;;;9.13;;
6109;SDS011;3085;49.444;11.054;2023-04-09T07:29:04;23.37;;;9.73;;
6109;SDS011;3085;49.444;11.054;2023-04-09T07:31:31;18.60;;;8.90;;
6109;SDS011;3085;49.444;11.054;2023-04-09T07:33:58;16.50;;;8.87;;
6109;SDS011;3085;49.444;11.054;2023-04-09T07:36:25;16.10;;;7.73;;
6109;SDS011;3085;49.444;11.054;2023-04-09T07:38:52;21.13;;;9.70;;
6109;SDS011;3085;49.444;11.054;2023-04-09T07:41:19;20.50;;;8.40;;
6109;SDS011;3085;49.444;11.054;2023-04-09T07:43:47;18.10;;;9.00;;
6109;SDS011;3085;49.444;11.054;2023-04-09T07:46:17;15.60;;;8.27;;
6109;SDS011;3085;49.444;11.054;2023-04-09T07:48:44;16.63;;;8.57;;
6109;SDS011;3085;49.444;11.054;2023-04-09T07:51:11;16.43;;;8.13;;
6109;SDS011;3085;49.444;11.054;2023-04-09T07:53:38;17.53;;;9.13;;
6109;SDS011;3085;49.444;11.054;2023-04-09T07:56:05;24.17;;;10.60;;
6109;SDS011;3085;49.444;11.054;2023-04-09T07:58:32;17.93;;;9.53;;
6109;SDS011;3085;49.444;11.054;2023-04-09T08:01:00;20.07;;;7.77;;
6109;SDS011;3085;49.444;11.054;2023-04-09T08:03:27;20.23;;;10.37;;
6109;SDS011;3085;49.444;11.054;2023-04-09T08:05:54;16.30;;;7.60;;
6109;SDS011;3085;49.444;11.054;2023-04-09T08:08:21;16.83;;;8.97;;
6109;SDS011;3085;49.444;11.054;2023-04-09T08:10:48;18.27;;;7.93;;
6109;SDS011;3085;49.444;11.054;2023-04-09T08:13:15;23.73;;;11.10;;
6109;SDS011;3085;49.444;11.054;2023-04-09T08:15:42;18.00;;;8.97;;
6109;SDS011;3085;49.444;11.054;2023-04-09T08:18:10;19.43;;;9.27;;
6109;SDS011;3085;49.444;11.054;2023-04-09T08:20:37;17.23;;;9.13;;
6109;SDS011;3085;49.444;11.054;2023-04-09T08:23:08;19.90;;;9.47;;
6109;SDS011;3085;49.444;11.054;2023-04-09T08:25:35;20.73;;;9.03;;
6109;SDS011;3085;49.444;11.054;2023-04-09T08:28:02;20.57;;;9.03;;
6109;SDS011;3085;49.444;11.054;2023-04-09T08:30:29;16.10;;;8.77;;
6109;SDS011;3085;49.444;11.054;2023-04-09T08:32:58;18.47;;;8.17;;
6109;SDS011;3085;49.444;11.054;2023-04-09T08:35:26;17.70;;;8.03;;
6109;SDS011;3085;49.444;11.054;2023-04-09T08:37:55;13.67;;;6.90;;
6109;SDS011;3085;49.444;11.054;2023-04-09T08:40:22;14.87;;;7.40;;
6109;SDS011;3085;49.444;11.054;2023-04-09T08:42:50;15.30;;;7.57;;
6109;SDS011;3085;49.444;11.054;2023-04-09T08:45:20;14.80;;;7.90;;
6109;SDS011;3085;49.444;11.054;2023-04-09T08:47:48;14.70;;;7.60;;
6109;SDS011;3085;49.444;11.054;2023-04-09T08:50:16;16.50;;;8.30;;
6109;SDS011;3085;49.444;11.054;2023-04-09T08:52:46;15.30;;;7.27;;
6109;SDS011;3085;49.444;11.054;2023-04-09T08:55:13;21.67;;;8.37;;
6109;SDS011;3085;49.444;11.054;2023-04-09T08:57:39;15.20;;;7.80;;
6109;SDS011;3085;49.444;11.054;2023-04-09T09:00:07;14.57;;;8.10;;
6109;SDS011;3085;49.444;11.054;2023-04-09T09:02:34;15.80;;;8.10;;
6109;SDS011;3085;49.444;11.054;2023-04-09T09:05:02;17.90;;;7.80;;
6109;SDS011;3085;49.444;11.054;2023-04-09T09:07:29;16.00;;;8.23;;
6109;SDS011;3085;49.444;11.054;2023-04-09T09:10:00;19.53;;;8.90;;
6109;SDS011;3085;49.444;11.054;2023-04-09T09:12:31;15.03;;;7.83;;
6109;SDS011;3085;49.444;11.054;2023-04-09T09:15:02;30.70;;;7.77;;
6109;SDS011;3085;49.444;11.054;2023-04-09T09:17:30;19.80;;;8.77;;
6109;SDS011;3085;49.444;11.054;2023-04-09T09:19:57;14.20;;;8.83;;
6109;SDS011;3085;49.444;11.054;2023-04-09T09:22:23;20.80;;;9.70;;
6109;SDS011;3085;49.444;11.054;2023-04-09T09:24:51;14.23;;;7.50;;
6109;SDS011;3085;49.444;11.054;2023-04-09T09:27:31;13.63;;;7.90;;
6109;SDS011;3085;49.444;11.054;2023-04-09T09:30:00;18.47;;;8.17;;
6109;SDS011;3085;49.444;11.054;2023-04-09T09:32:28;15.53;;;8.27;;
6109;SDS011;3085;49.444;11.054;2023-04-09T09:34:59;11.90;;;7.00;;
6109;SDS011;3085;49.444;11.054;2023-04-09T09:37:27;14.93;;;7.53;;
6109;SDS011;3085;49.444;11.054;2023-04-09T09:39:55;27.77;;;12.90;;
6109;SDS011;3085;49.444;11.054;2023-04-09T09:42:22;16.93;;;8.10;;
6109;SDS011;3085;49.444;11.054;2023-04-09T09:44:51;16.33;;;8.23;;
6109;SDS011;3085;49.444;11.054;2023-04-09T09:47:19;17.50;;;7.40;;
6109;SDS011;3085;49.444;11.054;2023-04-09T09:49:46;13.40;;;8.20;;
6109;SDS011;3085;49.444;11.054;2023-04-09T09:52:15;24.13;;;8.33;;
6109;SDS011;3085;49.444;11.054;2023-04-09T09:54:50;16.57;;;7.50;;
6109;SDS011;3085;49.444;11.054;2023-04-09T09:57:18;13.03;;;7.00;;
6109;SDS011;3085;49.444;11.054;2023-04-09T09:59:46;13.53;;;6.40;;
6109;SDS011;3085;49.444;11.054;2023-04-09T10:02:19;16.40;;;7.83;;
6109;SDS011;3085;49.444;11.054;2023-04-09T10:04:50;14.70;;;7.67;;
6109;SDS011;3085;49.444;11.054;2023-04-09T10:07:17;12.47;;;6.90;;
6109;SDS011;3085;49.444;11.054;2023-04-09T10:09:47;15.80;;;7.37;;
6109;SDS011;3085;49.444;11.054;2023-04-09T10:12:15;15.20;;;8.90;;
6109;SDS011;3085;49.444;11.054;2023-04-09T10:14:44;15.53;;;7.53;;
6109;SDS011;3085;49.444;11.054;2023-04-09T10:17:12;15.30;;;6.93;;
6109;SDS011;3085;49.444;11.054;2023-04-09T10:19:43;12.30;;;7.00;;
6109;SDS011;3085;49.444;11.054;2023-04-09T10:22:19;13.53;;;6.70;;
6109;SDS011;3085;49.444;11.054;2023-04-09T10:24:48;11.20;;;6.97;;
6109;SDS011;3085;49.444;11.054;2023-04-09T10:27:16;12.20;;;6.37;;
6109;SDS011;3085;49.444;11.054;2023-04-09T10:29:44;11.30;;;5.73;;
6109;SDS011;3085;49.444;11.054;2023-04-09T10:32:17;12.13;;;5.30;;
6109;SDS011;3085;49.444;11.054;2023-04-09T10:34:45;13.87;;;7.20;;
6109;SDS011;3085;49.444;11.054;2023-04-09T10:37:13;13.57;;;7.73;;
6109;SDS011;3085;49.444;11.054;2023-04-09T10:39:43;18.13;;;6.97;;
6109;SDS011;3085;49.444;11.054;2023-04-09T10:42:12;17.73;;;7.70;;
6109;SDS011;3085;49.444;11.054;2023-04-09T10:44:40;12.90;;;6.30;;
6109;SDS011;3085;49.444;11.054;2023-04-09T10:47:07;10.33;;;5.90;;
6109;SDS011;3085;49.444;11.054;2023-04-09T10:49:37;14.90;;;7.03;;
6109;SDS011;3085;49.444;11.054;2023-04-09T10:52:05;10.77;;;6.60;;
6109;SDS011;3085;49.444;11.054;2023-04-09T10:54:38;11.40;;;6.33;;
6109;SDS011;3085;49.444;11.054;2023-04-09T10:57:13;11.97;;;6.57;;
6109;SDS011;3085;49.444;11.054;2023-04-09T10:59:47;8.73;;;5.70;;
6109;SDS011;3085;49.444;11.054;2023-04-09T11:02:43;13.93;;;6.57;;
6109;SDS011;3085;49.444;11.054;2023-04-09T11:05:32;11.37;;;5.17;;
6109;SDS011;3085;49.444;11.054;2023-04-09T11:08:03;8.10;;;4.87;;
6109;SDS011;3085;49.444;11.054;2023-04-09T11:10:31;12.23;;;4.70;;
6109;SDS011;3085;49.444;11.054;2023-04-09T11:12:59;12.67;;;4.93;;
6109;SDS011;3085;49.444;11.054;2023-04-09T11:15:26;9.90;;;5.23;;
6109;SDS011;3085;49.444;11.054;2023-04-09T11:17:53;10.20;;;5.20;;
6109;SDS011;3085;49.444;11.054;2023-04-09T11:20:22;6.43;;;4.43;;
6109;SDS011;3085;49.444;11.054;2023-04-09T11:22:51;9.70;;;4.77;;
6109;SDS011;3085;49.444;11.054;2023-04-09T11:25:19;8.80;;;4.80;;
6109;SDS011;3085;49.444;11.054;2023-04-09T11:27:47;8.37;;;4.90;;
6109;SDS011;3085;49.444;11.054;2023-04-09T11:30:14;7.93;;;4.80;;
6109;SDS011;3085;49.444;11.054;2023-04-09T11:32:42;7.77;;;4.37;;
6109;SDS011;3085;49.444;11.054;2023-04-09T11:35:12;8.40;;;4.80;;
6109;SDS011;3085;49.444;11.054;2023-04-09T11:37:40;6.87;;;4.23;;
6109;SDS011;3085;49.444;11.054;2023-04-09T11:40:14;12.63;;;6.93;;
6109;SDS011;3085;49.444;11.054;2023-04-09T11:42:42;14.90;;;4.40;;
6109;SDS011;3085;49.444;11.054;2023-04-09T11:45:09;12.43;;;5.33;;
6109;SDS011;3085;49.444;11.054;2023-04-09T11:47:37;9.00;;;5.63;;
6109;SDS011;3085;49.444;11.054;2023-04-09T11:50:06;8.20;;;4.10;;
6109;SDS011;3085;49.444;11.054;2023-04-09T11:52:34;7.40;;;4.60;;
6109;SDS011;3085;49.444;11.054;2023-04-09T11:55:01;6.70;;;4.60;;
6109;SDS011;3085;49.444;11.054;2023-04-09T11:57:37;8.97;;;4.80;;
6109;SDS011;3085;49.444;11.054;2023-04-09T12:00:07;6.27;;;4.27;;
6109;SDS011;3085;49.444;11.054;2023-04-09T12:02:36;5.33;;;4.27;;
6109;SDS011;3085;49.444;11.054;2023-04-09T12:07:33;9.20;;;3.67;;
6109;SDS011;3085;49.444;11.054;2023-04-09T12:10:04;6.23;;;4.40;;
6109;SDS011;3085;49.444;11.054;2023-04-09T12:12:42;5.93;;;4.03;;
6109;SDS011;3085;49.444;11.054;2023-04-09T12:15:11;10.63;;;4.57;;
6109;SDS011;3085;49.444;11.054;2023-04-09T12:17:46;8.47;;;4.47;;
6109;SDS011;3085;49.444;11.054;2023-04-09T12:20:24;8.90;;;4.70;;
6109;SDS011;3085;49.444;11.054;2023-04-09T12:22:52;10.17;;;4.73;;
6109;SDS011;3085;49.444;11.054;2023-04-09T12:25:19;8.37;;;4.73;;
6109;SDS011;3085;49.444;11.054;2023-04-09T12:27:47;4.37;;;3.80;;
6109;SDS011;3085;49.444;11.054;2023-04-09T12:30:14;5.73;;;3.93;;
6109;SDS011;3085;49.444;11.054;2023-04-09T12:32:41;6.50;;;4.40;;
6109;SDS011;3085;49.444;11.054;2023-04-09T12:35:09;7.70;;;4.40;;
6109;SDS011;3085;49.444;11.054;2023-04-09T12:37:37;5.60;;;4.17;;
6109;SDS011;3085;49.444;11.054;2023-04-09T12:40:04;10.07;;;4.67;;
6109;SDS011;3085;49.444;11.054;2023-04-09T12:42:31;7.83;;;4.73;;
6109;SDS011;3085;49.444;11.054;2023-04-09T12:44:59;9.30;;;4.27;;
6109;SDS011;3085;49.444;11.054;2023-04-09T12:47:26;10.50;;;5.30;;
6109;SDS011;3085;49.444;11.054;2023-04-09T12:49:53;11.80;;;6.00;;
6109;SDS011;3085;49.444;11.054;2023-04-09T12:52:20;9.90;;;5.50;;
6109;SDS011;3085;49.444;11.054;2023-04-09T12:54:48;9.30;;;4.43;;
6109;SDS011;3085;49.444;11.054;2023-04-09T12:57:15;8.43;;;4.47;;
6109;SDS011;3085;49.444;11.054;2023-04-09T12:59:42;13.17;;;4.90;;
6109;SDS011;3085;49.444;11.054;2023-04-09T13:02:10;11.13;;;5.20;;
6109;SDS011;3085;49.444;11.054;2023-04-09T13:04:37;8.20;;;4.33;;
6109;SDS011;3085;49.444;11.054;2023-04-09T13:07:06;7.83;;;4.17;;
6109;SDS011;3085;49.444;11.054;2023-04-09T13:09:36;5.70;;;4.10;;
6109;SDS011;3085;49.444;11.054;2023-04-09T13:12:02;7.30;;;4.50;;
6109;SDS011;3085;49.444;11.054;2023-04-09T13:14:29;6.23;;;4.07;;
6109;SDS011;3085;49.444;11.054;2023-04-09T13:16:56;6.93;;;3.70;;
6109;SDS011;3085;49.444;11.054;2023-04-09T13:19:24;6.30;;;3.90;;
6109;SDS011;3085;49.444;11.054;2023-04-09T13:21:52;8.97;;;4.43;;
6109;SDS011;3085;49.444;11.054;2023-04-09T13:24:19;8.30;;;4.50;;
6109;SDS011;3085;49.444;11.054;2023-04-09T13:26:45;7.30;;;3.93;;
6109;SDS011;3085;49.444;11.054;2023-04-09T13:29:12;6.13;;;4.10;;
6109;SDS011;3085;49.444;11.054;2023-04-09T13:31:39;6.20;;;4.10;;
6109;SDS011;3085;49.444;11.054;2023-04-09T13:34:06;7.00;;;4.20;;
6109;SDS011;3085;49.444;11.054;2023-04-09T13:36:34;5.27;;;3.53;;
6109;SDS011;3085;49.444;11.054;2023-04-09T13:39:01;8.77;;;4.13;;
6109;SDS011;3085;49.444;11.054;2023-04-09T13:41:29;7.00;;;4.20;;
6109;SDS011;3085;49.444;11.054;2023-04-09T13:43:57;6.10;;;3.80;;
6109;SDS011;3085;49.444;11.054;2023-04-09T13:46:24;7.37;;;4.80;;
6109;SDS011;3085;49.444;11.054;2023-04-09T13:48:51;7.47;;;4.43;;
6109;SDS011;3085;49.444;11.054;2023-04-09T13:51:18;8.67;;;4.67;;
6109;SDS011;3085;49.444;11.054;2023-04-09T13:53:47;9.50;;;5.30;;
6109;SDS011;3085;49.444;11.054;2023-04-09T13:56:14;7.60;;;4.60;;
6109;SDS011;3085;49.444;11.054;2023-04-09T13:58:40;6.53;;;4.00;;
6109;SDS011;3085;49.444;11.054;2023-04-09T14:01:08;6.77;;;4.30;;
6109;SDS011;3085;49.444;11.054;2023-04-09T14:03:35;9.50;;;4.90;;
6109;SDS011;3085;49.444;11.054;2023-04-09T14:06:04;5.23;;;3.47;;
6109;SDS011;3085;49.444;11.054;2023-04-09T14:08:31;9.87;;;5.30;;
6109;SDS011;3085;49.444;11.054;2023-04-09T14:10:59;7.37;;;4.10;;
6109;SDS011;3085;49.444;11.054;2023-04-09T14:13:26;7.93;;;4.63;;
6109;SDS011;3085;49.444;11.054;2023-04-09T14:15:53;11.40;;;6.17;;
6109;SDS011;3085;49.444;11.054;2023-04-09T14:18:20;10.50;;;5.87;;
6109;SDS011;3085;49.444;11.054;2023-04-09T14:20:46;8.93;;;4.67;;
6109;SDS011;3085;49.444;11.054;2023-04-09T14:23:13;9.43;;;5.03;;
6109;SDS011;3085;49.444;11.054;2023-04-09T14:25:40;7.87;;;4.33;;
6109;SDS011;3085;49.444;11.054;2023-04-09T14:28:08;13.10;;;6.00;;
6109;SDS011;3085;49.444;11.054;2023-04-09T14:30:35;6.90;;;4.23;;
6109;SDS011;3085;49.444;11.054;2023-04-09T14:33:02;8.10;;;4.00;;
6109;SDS011;3085;49.444;11.054;2023-04-09T14:35:28;7.60;;;4.33;;
6109;SDS011;3085;49.444;11.054;2023-04-09T14:37:55;7.63;;;4.23;;
6109;SDS011;3085;49.444;11.054;2023-04-09T14:40:22;5.73;;;3.73;;
6109;SDS011;3085;49.444;11.054;2023-04-09T14:42:49;5.97;;;3.73;;
6109;SDS011;3085;49.444;11.054;2023-04-09T14:45:17;5.17;;;3.10;;
6109;SDS011;3085;49.444;11.054;2023-04-09T14:47:44;9.10;;;4.60;;
6109;SDS011;3085;49.444;11.054;2023-04-09T14:50:11;9.70;;;4.30;;
6109;SDS011;3085;49.444;11.054;2023-04-09T14:52:38;6.10;;;3.63;;
6109;SDS011;3085;49.444;11.054;2023-04-09T14:55:05;8.30;;;4.23;;
6109;SDS011;3085;49.444;11.054;2023-04-09T14:57:36;5.63;;;3.07;;
6109;SDS011;3085;49.444;11.054;2023-04-09T15:00:04;8.27;;;4.33;;